Decoded Metar for CWIL (HAT ISLAND in NU, CANADA) (IATA:WIL) | Meteo·Mobile Aviation Weather
aviador You're here:

CWIL Decoded Metar

HAT ISLAND in NU, CANADA
Report Time2018-10-20 07:00:00
UTC Time2018-10-20 07:27:35
Flight Rules lifr LIFR
Wind310° at 07 kt
W.Rank310° ranks 3
Current wind is below 310° avg. (14.3)
Visibility0 m
Phenomena:N/A
Clouds:Overcast 007 Hf
Expected CloudBase > 400 ft AGL from Temp-Dew spread
Ceiling700 ft
Temp-11°C (ISA -26)
Dew Point-12°C (92% RH)
AAT-16.7°C
QNH1019 hPa
Density Alt-3,284 ft
Elevation118 ft
Report Wrong Elevation
Raw Report
CWIL 200700Z AUTO 31007KT ////SM OVC007 M11/M12 A3008=

Extra information for CWIL:More info

Metar Taf Metar & Taf Last 4 Metars F.Rules Stats Wind Profile Meteogram Temp Stats Airport Information Weather charts Add Link Nearby VenuesMetar ALERT Operation Metar Decoded Social comments